F-HZAF est opérationnel

Rédigé par Admin - 16 mars 2015


F-HZAF, DR400-180Regent - quadriplace de voyage - vient en remplacement de F-BVMP vendu par son propriétaire l'ANEG.

Pour voler à bord de ce nouvel avion, vous devez contacter un instructeur pour un "lâcher" préalable.

Bons vols à bord de ce bel avion récent.



Classé dans : Actualités - Mots clés : aucun

A propos de l'auteur:

Pilote et webmaster de ce site.

Écrire un commentaire

Quelle est la deuxième lettre du mot vvoen ? : 



Webcam :

Nuit aéronautique

16 Feb 2019

Heure locale,
pour LFDL uniquement.

Lever du soleil aéronautique :07:33
Lever du soleil :08:03
Coucher du soleil :18:24
Coucher du soleil aéronautique :18:54

Metar

LFBI :
2019/02/16 14:30
LFBI 161430Z AUTO 14005KT 100V190 CAVOK 17/05 Q1025 NOSIG
LFBI :
Poitiers, France (LFBI) 46-35N 000-19E 120M
Feb 16, 2019 - 09:30 AM EST / 2019.02.16 1430 UTC
Wind: from the SE (140 degrees) at 6 MPH (5 KT) (direction variable):0
Visibility: greater than 7 mile(s):0
Temperature: 62 F (17 C)
Dew Point: 41 F (5 C)
Relative Humidity: 45%
Pressure (altimeter): 30.27 in. Hg (1025 hPa)
ob: LFBI 161430Z AUTO 14005KT 100V190 CAVOK 17/05 Q1025 NOSIG
cycle: 14

Afficher le metar d'une autre station :
Code OACI :

Aéroclub de Loudun


Bellevue
86200 Loudun


Contacter Michel Richez (président)

  • Mail:michel.richez@free.fr
  • Tel:09-50-38-02-06
  • Mobile:06-52-73-09-01



agrandir le plan

Newsletter

Mon e-mail :